Time;durP1;ratioP1;P1;durP2;ratioP2;P2;SDS_P1;SDS_P2;PMS_P1;PMS_P2;Temp;Humidity;BMP_temperature;BMP_pressure;BME280_temperature;BME280_humidity;BME280_pressure;Samples;Min_cycle;Max_cycle;Signal;HPM_P1;HPM_P2
2024/01/05 18:34:25;;;;;;;76.80;31.52;;;2.30;99.90;;;;;;5123499;27;20112;-58
2024/01/05 18:36:50;;;;;;;69.70;32.90;;;2.20;99.90;;;;;;5124535;28;20035;-59
2024/01/05 18:39:16;;;;;;;78.13;35.53;;;2.20;99.90;;;;;;5124749;28;20031;-58
2024/01/05 18:41:42;;;;;;;81.85;36.58;;;2.10;99.90;;;;;;5124884;28;20024;-57
2024/01/05 18:44:08;;;;;;;83.47;39.00;;;2.10;99.90;;;;;;5124713;28;20032;-54
2024/01/05 18:46:36;;;;;;;82.82;39.42;;;2.20;99.90;;;;;;5124911;28;20039;-56
2024/01/05 18:49:02;;;;;;;81.65;39.08;;;2.20;99.90;;;;;;5124745;28;20061;-57
2024/01/05 18:51:37;;;;;;;74.28;37.95;;;2.20;99.90;;;;;;5122977;28;20027;-60
2024/01/05 18:54:03;;;;;;;82.45;37.45;;;2.20;99.90;;;;;;5121686;28;20077;-57
2024/01/05 18:56:29;;;;;;;80.60;35.38;;;2.20;99.90;;;;;;5123519;28;20123;-59
2024/01/05 18:58:55;;;;;;;72.38;35.80;;;2.10;99.90;;;;;;5123656;28;20057;-58
2024/01/05 19:01:21;;;;;;;72.95;34.53;;;2.20;99.90;;;;;;5123839;28;20526;-58
2024/01/05 19:03:46;;;;;;;73.75;35.33;;;2.20;99.90;;;;;;5123854;28;20030;-58
2024/01/05 19:06:16;;;;;;;74.65;35.75;;;2.20;99.90;;;;;;5104832;28;20119;-58
2024/01/05 19:08:45;;;;;;;70.90;35.38;;;2.20;99.90;;;;;;5121109;28;20528;-56
2024/01/05 19:11:11;;;;;;;72.30;34.53;;;2.00;99.90;;;;;;5124169;28;20063;-57
2024/01/05 19:13:37;;;;;;;70.72;34.55;;;2.10;99.90;;;;;;5123333;28;20069;-58
2024/01/05 19:16:06;;;;;;;76.43;34.85;;;2.10;99.90;;;;;;5121037;28;20449;-55
2024/01/05 19:18:33;;;;;;;73.47;35.45;;;2.10;99.90;;;;;;5124018;28;20032;-59
2024/01/05 19:21:01;;;;;;;74.00;36.08;;;2.20;99.90;;;;;;5123679;28;20050;-57
2024/01/05 19:23:27;;;;;;;75.38;36.03;;;2.20;99.90;;;;;;5123734;28;20027;-57
2024/01/05 19:25:53;;;;;;;80.57;39.40;;;2.20;99.90;;;;;;5123724;28;20492;-58
2024/01/05 19:28:19;;;;;;;78.15;37.92;;;2.30;99.90;;;;;;5123432;28;20027;-59
2024/01/05 19:30:45;;;;;;;78.68;36.35;;;2.30;99.90;;;;;;5123117;28;20027;-59
2024/01/05 19:33:11;;;;;;;72.88;35.20;;;2.30;99.90;;;;;;5120355;28;20047;-58
2024/01/05 19:35:36;;;;;;;75.68;37.80;;;2.30;99.90;;;;;;5123314;28;20031;-56
2024/01/05 19:38:04;;;;;;;75.47;35.13;;;2.40;99.90;;;;;;5122843;28;20023;-57
2024/01/05 19:40:31;;;;;;;83.55;38.67;;;2.40;99.90;;;;;;5122828;28;20050;-56
2024/01/05 19:42:57;;;;;;;82.72;39.17;;;2.40;99.90;;;;;;5123284;28;20023;-60
2024/01/05 19:45:23;;;;;;;89.40;38.40;;;2.40;99.90;;;;;;5110798;28;20031;-57
2024/01/05 19:47:48;;;;;;;79.50;37.22;;;2.30;99.90;;;;;;5109426;28;20129;-58
2024/01/05 19:50:14;;;;;;;77.68;37.90;;;2.30;99.90;;;;;;5090906;28;20122;-56
2024/01/05 19:52:40;;;;;;;74.55;36.67;;;2.40;99.90;;;;;;5109560;28;20096;-58
2024/01/05 19:55:07;;;;;;;70.38;35.90;;;2.40;99.90;;;;;;5109742;28;20023;-57
2024/01/05 19:57:34;;;;;;;72.80;35.92;;;2.40;99.90;;;;;;5108921;28;20019;-56
2024/01/05 20:00:02;;;;;;;77.00;35.35;;;2.30;99.90;;;;;;5108798;28;20107;-56
2024/01/05 20:02:28;;;;;;;76.80;35.25;;;2.30;99.90;;;;;;5108858;28;20032;-58
2024/01/05 20:04:54;;;;;;;80.40;36.50;;;2.30;99.90;;;;;;5108671;28;20022;-57
2024/01/05 20:07:20;;;;;;;78.93;38.78;;;2.40;99.90;;;;;;5108950;28;20062;-57
2024/01/05 20:09:46;;;;;;;81.63;35.97;;;2.40;99.90;;;;;;5108191;28;20486;-58
2024/01/05 20:12:16;;;;;;;83.78;38.05;;;2.40;99.90;;;;;;5108495;28;20547;-58
2024/01/05 20:14:44;;;;;;;83.30;36.90;;;2.30;99.90;;;;;;5091439;28;20519;-57
2024/01/05 20:17:10;;;;;;;83.47;39.22;;;2.30;99.90;;;;;;5108629;28;20028;-59
2024/01/05 20:19:37;;;;;;;91.80;41.17;;;2.40;99.90;;;;;;5108794;28;20024;-59
2024/01/05 20:22:05;;;;;;;80.32;37.72;;;2.40;99.90;;;;;;5090471;28;20031;-55
2024/01/05 20:24:31;;;;;;;77.85;37.03;;;2.40;99.90;;;;;;5108369;28;20035;-57
2024/01/05 20:26:57;;;;;;;85.63;39.83;;;2.40;99.90;;;;;;5109120;28;20027;-56
2024/01/05 20:29:22;;;;;;;83.63;36.67;;;2.30;99.90;;;;;;5109037;28;20656;-58
2024/01/05 20:31:50;;;;;;;74.18;35.28;;;2.20;99.90;;;;;;5109177;28;20494;-59
2024/01/05 20:34:17;;;;;;;81.47;37.40;;;2.30;99.90;;;;;;5108705;28;20090;-59
2024/01/05 20:36:42;;;;;;;90.35;40.00;;;2.20;99.90;;;;;;5108796;28;20466;-58
2024/01/05 20:39:12;;;;;;;83.35;36.67;;;2.20;99.90;;;;;;5109176;28;20034;-59
2024/01/05 20:41:38;;;;;;;109.43;42.20;;;2.30;99.90;;;;;;5108771;28;20034;-58
2024/01/05 20:44:05;;;;;;;91.60;39.57;;;2.20;99.90;;;;;;5108566;28;20047;-56
2024/01/05 20:46:30;;;;;;;87.50;40.43;;;2.20;99.90;;;;;;5107738;28;20073;-56
2024/01/05 20:48:57;;;;;;;93.55;38.85;;;2.30;99.90;;;;;;5089610;28;20031;-57
2024/01/05 20:51:24;;;;;;;89.65;40.05;;;2.20;99.90;;;;;;5108164;28;20026;-57
2024/01/05 20:53:50;;;;;;;91.57;39.38;;;2.20;99.90;;;;;;5108170;28;20481;-57
2024/01/05 20:56:17;;;;;;;102.30;41.10;;;2.20;99.90;;;;;;5106724;28;20534;-57
2024/01/05 20:58:42;;;;;;;86.90;39.23;;;2.30;99.90;;;;;;5107506;28;20710;-55
2024/01/05 21:01:09;;;;;;;101.97;41.72;;;2.20;99.90;;;;;;5107548;28;20039;-59
2024/01/05 21:03:35;;;;;;;94.93;41.65;;;2.30;99.90;;;;;;5104142;28;20035;-59
2024/01/05 21:06:01;;;;;;;94.20;41.28;;;2.30;99.90;;;;;;5106939;28;20046;-59
2024/01/05 21:08:29;;;;;;;89.43;42.47;;;2.30;99.90;;;;;;5106812;28;20035;-59
2024/01/05 21:10:57;;;;;;;99.63;43.25;;;2.30;99.90;;;;;;5106627;28;20020;-59
2024/01/05 21:13:23;;;;;;;103.78;44.25;;;2.40;99.90;;;;;;5105758;28;20453;-56
2024/01/05 21:15:50;;;;;;;102.95;44.42;;;2.30;99.90;;;;;;5107288;28;20023;-61
2024/01/05 21:18:17;;;;;;;;;;;2.30;99.90;;;;;;5108102;28;20038;-58
2024/01/05 21:21:06;;;;;;;110.88;43.72;;;2.30;99.90;;;;;;5088769;28;19955;-57
2024/01/05 21:23:32;;;;;;;96.60;43.15;;;2.30;99.90;;;;;;5102259;28;20073;-60
2024/01/05 21:25:58;;;;;;;99.20;43.40;;;2.30;99.90;;;;;;5105386;28;20059;-59
2024/01/05 21:28:23;;;;;;;96.97;42.25;;;2.30;99.90;;;;;;5105878;28;20047;-60
2024/01/05 21:30:49;;;;;;;116.82;45.13;;;2.30;99.90;;;;;;5086835;28;20661;-59
2024/01/05 21:33:14;;;;;;;111.82;45.53;;;2.30;99.90;;;;;;5106809;28;20039;-58
2024/01/05 21:35:41;;;;;;;112.22;47.83;;;2.30;99.90;;;;;;5107158;28;20846;-60
2024/01/05 21:38:07;;;;;;;98.78;42.10;;;2.20;99.90;;;;;;5107227;28;20038;-59
2024/01/05 21:40:32;;;;;;;100.75;43.17;;;2.30;99.90;;;;;;5106926;28;20381;-62
2024/01/05 21:42:58;;;;;;;97.75;41.45;;;2.30;99.90;;;;;;5107588;28;20023;-58
2024/01/05 21:45:24;;;;;;;97.43;41.60;;;2.20;99.90;;;;;;5103792;28;20102;-58
2024/01/05 21:47:50;;;;;;;98.68;42.42;;;2.20;99.90;;;;;;5106845;28;20452;-58
2024/01/05 21:50:15;;;;;;;108.05;41.65;;;2.20;99.90;;;;;;5107319;28;20122;-56
2024/01/05 21:52:41;;;;;;;85.03;39.30;;;2.10;99.90;;;;;;5107104;28;20035;-54
2024/01/05 21:55:07;;;;;;;93.32;38.85;;;2.20;99.90;;;;;;5107274;28;20058;-57
2024/01/05 21:57:32;;;;;;;105.00;41.40;;;2.20;99.90;;;;;;5107153;28;20106;-55
2024/01/05 22:00:00;;;;;;;103.07;40.88;;;2.10;99.90;;;;;;5106857;28;20030;-57
2024/01/05 22:02:26;;;;;;;101.68;39.58;;;2.10;99.90;;;;;;5088282;28;20035;-56
2024/01/05 22:04:52;;;;;;;102.68;42.53;;;2.10;99.90;;;;;;5106706;28;20023;-55
2024/01/05 22:07:17;;;;;;;120.22;42.05;;;2.10;99.90;;;;;;5107270;28;20035;-57
2024/01/05 22:09:44;;;;;;;104.90;41.40;;;2.00;99.90;;;;;;5106005;28;20024;-56
2024/01/05 22:12:11;;;;;;;101.60;43.50;;;2.00;99.90;;;;;;5105292;28;20051;-57
2024/01/05 22:14:37;;;;;;;123.88;42.97;;;2.00;99.90;;;;;;5106536;28;20095;-57
2024/01/05 22:17:03;;;;;;;93.15;40.70;;;2.00;99.90;;;;;;5103435;28;20039;-58
2024/01/05 22:19:28;;;;;;;99.07;40.65;;;2.00;99.90;;;;;;5106732;28;20138;-55
2024/01/05 22:21:54;;;;;;;92.03;40.42;;;2.00;99.90;;;;;;5107100;28;20028;-55
2024/01/05 22:24:20;;;;;;;104.53;42.03;;;2.00;99.90;;;;;;5106653;28;20463;-56
2024/01/05 22:26:46;;;;;;;100.05;40.35;;;2.10;99.90;;;;;;5104788;28;20024;-57
2024/01/05 22:29:11;;;;;;;101.22;39.65;;;2.00;99.90;;;;;;5106333;28;20035;-57
2024/01/05 22:31:37;;;;;;;109.45;39.30;;;2.00;99.90;;;;;;5106131;28;20023;-57
2024/01/05 22:34:03;;;;;;;105.03;40.47;;;2.00;99.90;;;;;;5105953;28;20059;-56
2024/01/05 22:36:28;;;;;;;105.18;37.80;;;2.00;99.90;;;;;;5106373;28;20049;-57
2024/01/05 22:38:54;;;;;;;104.10;40.45;;;1.90;99.90;;;;;;5106186;28;20106;-58
2024/01/05 22:41:22;;;;;;;106.35;43.15;;;1.90;99.90;;;;;;5087813;28;20115;-55
2024/01/05 22:43:48;;;;;;;97.50;40.78;;;1.90;99.90;;;;;;5106329;28;20032;-58
2024/01/05 22:46:14;;;;;;;114.80;41.22;;;2.00;99.90;;;;;;5106255;28;20038;-57
2024/01/05 22:48:41;;;;;;;107.13;42.00;;;1.90;99.90;;;;;;5106168;28;20055;-55
2024/01/05 22:51:07;;;;;;;110.00;40.33;;;1.90;99.90;;;;;;5103749;28;20027;-57
2024/01/05 22:53:33;;;;;;;114.47;43.77;;;1.90;99.90;;;;;;5105163;28;20598;-55
2024/01/05 22:55:59;;;;;;;151.90;43.70;;;1.90;99.90;;;;;;5105008;28;20027;-57
2024/01/05 22:58:25;;;;;;;125.05;42.45;;;1.90;99.90;;;;;;5106753;28;20044;-55
2024/01/05 23:00:52;;;;;;;169.88;44.72;;;1.80;99.90;;;;;;5106793;28;20058;-55
2024/01/05 23:03:18;;;;;;;100.35;41.50;;;1.70;99.90;;;;;;5105685;28;20036;-57
2024/01/05 23:05:43;;;;;;;157.90;43.22;;;1.70;99.90;;;;;;5105567;28;20030;-57
2024/01/05 23:08:09;;;;;;;208.60;49.53;;;1.70;99.90;;;;;;5105241;28;20062;-60
2024/01/05 23:10:35;;;;;;;123.28;42.72;;;1.70;99.90;;;;;;5105755;28;20027;-58
2024/01/05 23:13:04;;;;;;;175.65;47.80;;;1.70;99.90;;;;;;5105839;28;20039;-58
2024/01/05 23:15:34;;;;;;;115.40;43.55;;;1.70;99.90;;;;;;5105805;28;20031;-56
2024/01/05 23:18:00;;;;;;;161.35;44.20;;;1.70;99.90;;;;;;5106213;28;20455;-58
2024/01/05 23:20:25;;;;;;;145.55;41.72;;;1.50;99.90;;;;;;5108669;28;20084;-54
2024/01/05 23:22:51;;;;;;;99.28;41.60;;;1.60;99.90;;;;;;5109806;28;20035;-55
2024/01/05 23:25:17;;;;;;;147.63;43.40;;;1.60;99.90;;;;;;5109691;28;20103;-58
2024/01/05 23:27:42;;;;;;;175.50;42.00;;;1.60;99.90;;;;;;5109560;28;20766;-58
2024/01/05 23:30:08;;;;;;;181.60;42.25;;;1.40;99.90;;;;;;5109750;28;20780;-58
2024/01/05 23:32:34;;;;;;;129.88;40.70;;;1.30;99.90;;;;;;5110026;28;20055;-57
2024/01/05 23:35:00;;;;;;;111.72;40.42;;;1.20;99.90;;;;;;5110685;28;20077;-58
2024/01/05 23:37:28;;;;;;;138.88;40.80;;;1.20;99.90;;;;;;5091895;28;20760;-55
2024/01/05 23:39:53;;;;;;;163.38;42.38;;;1.30;99.90;;;;;;5110261;28;20532;-56
2024/01/05 23:42:19;;;;;;;130.25;39.75;;;1.20;99.90;;;;;;5109380;28;20031;-57
